Gibsonburg, OH

2:28 AM EDT on May 06, 2015 (GMT -0400)
OHDOT | | Change Station
CLOSE
Current Station
Personal Weather Station
Location: Woodville, OH
Elevation: 631 ft
Nearby Weather Stations

Elev 631 ft 41.44 °N, 83.33 °W | Updated 38 minutes ago

Overcast
Overcast
51 °F
Feels Like 51 °F
N
4
Wind Variable Wind from North
Gusts 7.0 mph

Today
High -- | Low -- °F
--% Chance of Precip.
Yesterday
High -- | Low -- °F
Precip. -- in
6:24 AM 8:35 PM
Waning Gibbous, 95% visible
Pressure 30.27 in
Visibility 4.0 miles
Clouds Overcast 400 ft
Dew Point 51 °F
Humidity 99%
Rainfall in
Snow Depth Not available.
UV 0 out of 12
Pollen 1.90 out of 12
Air Quality Not available.
Flu Activity Regional
SPECI KTDZ 060607Z AUTO 03006KT 4SM BR OVC004 11/09 A3027 RMK AO2 T01110094 TSNO

More Conditions Fewer Conditions

Pressure 30.27 in
Visibility 4.0 miles
Clouds Overcast 400 ft
Dew Point 51 °F
Humidity 99%
Rainfall in
Snow Depth Not available.
UV 0 out of 12
Pollen 1.90 out of 12
Air Quality Not available.
Flu Activity Regional
SPECI KTDZ 060607Z AUTO 03006KT 4SM BR OVC004 11/09 A3027 RMK AO2 T01110094 TSNO

More Conditions Fewer Conditions

10-Day Weather Forecast

Almanac

Astronomy

May. 06, 2015 Rise Set
Actual Time
Civil Twilight
Nautical Twilight
Astronomical Twilight
Moon
Length of Visible Light
Length of Day
Tomorrow will be .
, % of the Moon is Illuminated

Today's Extremes

State Highs State Lows

Community

WunderPhotos

Upload Photos

1,818,850 photos uploaded!

WunderBlogs® & News

Nearby

Air Quality

  Air Quality AQ Index Pollutant
Not available.

Snow Depth

Station Depth Elevation

Earthquake Activity

City Distance Mag. Time & Date
Minimum magnitude displayed is 2.5.

Coastal Water Temperatures

Place Temperature

Stations

Nearby Weather Stations

Station Location Temp. Windchill Dew Point Humidity Wind Precip. Elev Updated Type